Time;durP1;ratioP1;P1;durP2;ratioP2;P2;SDS_P1;SDS_P2;PMS_P1;PMS_P2;Temp;Humidity;BMP_temperature;BMP_pressure;BME280_temperature;BME280_humidity;BME280_pressure;Samples;Min_cycle;Max_cycle;Signal;HPM_P1;HPM_P2
2021/08/21 00:02:11;;;;;;;;;;;;;;;17.12;76.30;100149.63;5021862;28;19939;-62
2021/08/21 00:04:57;;;;;;;;;;;;;;;17.13;76.38;100153.09;5036728;28;20395;-62
2021/08/21 00:07:41;;;;;;;;;;;;;;;17.13;76.43;100153.94;5021986;28;20276;-62
2021/08/21 00:10:28;;;;;;;;;;;;;;;17.13;76.29;100159.16;5036774;28;19924;-62
2021/08/21 00:13:15;;;;;;;;;;;;;;;17.13;76.33;100150.47;5021577;28;19924;-62
2021/08/21 00:16:04;;;;;;;;;;;;;;;17.12;76.32;100149.63;5036387;28;19924;-62
2021/08/21 00:18:51;;;;;;;;;;;;;;;17.12;76.53;100147.00;5021299;28;20347;-62
2021/08/21 00:21:40;;;;;;;;;;;;;;;17.13;76.25;100143.47;5021435;28;19924;-63
2021/08/21 00:24:30;;;;;;;;;;;;;;;17.12;76.53;100147.00;5036405;28;20052;-62
2021/08/21 00:27:14;;;;;;;;;;;;;;;17.13;76.43;100142.63;5021297;28;19962;-62
2021/08/21 00:29:58;;;;;;;;;;;;;;;17.13;76.36;100147.84;5035980;28;19924;-62
2021/08/21 00:32:42;;;;;;;;;;;;;;;17.12;76.54;100148.72;5021850;28;20434;-64
2021/08/21 00:35:31;;;;;;;;;;;;;;;17.11;76.47;100142.63;5035996;28;19971;-64
2021/08/21 00:38:15;;;;;;;;;;;;;;;17.11;76.35;100144.38;5021664;28;20008;-63
2021/08/21 00:40:59;;;;;;;;;;;;;;;17.11;76.46;100145.25;5036145;28;20012;-63
2021/08/21 00:43:52;;;;;;;;;;;;;;;17.11;76.37;100142.63;5021386;28;19927;-63
2021/08/21 00:46:55;;;;;;;;;;;;;;;17.11;76.63;100141.75;5021256;28;20067;-63
2021/08/21 00:49:40;;;;;;;;;;;;;;;17.10;76.57;100143.53;5035920;28;20353;-63
2021/08/21 00:52:31;;;;;;;;;;;;;;;17.09;76.48;100141.78;5021041;28;19923;-63
2021/08/21 00:55:18;;;;;;;;;;;;;;;17.09;76.63;100136.53;5020917;28;20035;-64
2021/08/21 00:58:02;;;;;;;;;;;;;;;17.09;76.76;100143.50;5035838;28;20003;-63
2021/08/21 01:00:49;;;;;;;;;;;;;;;17.08;76.72;100141.78;5036147;28;20070;-64
2021/08/21 01:03:36;;;;;;;;;;;;;;;17.08;76.57;100141.78;5020468;28;19971;-62
2021/08/21 01:06:21;;;;;;;;;;;;;;;17.07;76.67;100142.66;5020856;28;19967;-62
2021/08/21 01:09:05;;;;;;;;;;;;;;;17.05;76.63;100140.06;5020509;28;19924;-62
2021/08/21 01:11:52;;;;;;;;;;;;;;;17.05;76.66;100143.53;5036046;28;19967;-63
2021/08/21 01:14:39;;;;;;;;;;;;;;;17.03;76.63;100150.56;5035475;28;19923;-62
2021/08/21 01:17:26;;;;;;;;;;;;;;;17.03;76.68;100144.44;5020882;28;20018;-62
2021/08/21 01:20:16;;;;;;;;;;;;;;;17.03;76.62;100136.59;5035539;28;20006;-62
2021/08/21 01:23:02;;;;;;;;;;;;;;;17.01;76.78;100139.22;5020553;28;20028;-62
2021/08/21 01:25:45;;;;;;;;;;;;;;;17.00;76.83;100134.00;5035141;28;19967;-62
2021/08/21 01:28:32;;;;;;;;;;;;;;;16.98;76.88;100139.25;5035557;28;20283;-62
2021/08/21 01:31:19;;;;;;;;;;;;;;;16.98;76.79;100135.75;5035210;28;19971;-63
2021/08/21 01:34:03;;;;;;;;;;;;;;;16.97;76.60;100140.13;5035179;28;20284;-62
2021/08/21 01:36:48;;;;;;;;;;;;;;;16.96;76.56;100125.31;5035509;28;19924;-63
2021/08/21 01:39:35;;;;;;;;;;;;;;;16.95;76.94;100134.03;5035103;28;19924;-63
2021/08/21 01:42:23;;;;;;;;;;;;;;;16.95;76.73;100133.19;5034767;28;19988;-63
2021/08/21 01:45:13;;;;;;;;;;;;;;;16.93;76.89;100125.28;5020390;28;19995;-63
2021/08/21 01:48:00;;;;;;;;;;;;;;;16.93;76.74;100124.44;5020430;28;19967;-62
2021/08/21 01:50:45;;;;;;;;;;;;;;;16.92;76.79;100120.09;5034773;28;19970;-62
2021/08/21 01:53:32;;;;;;;;;;;;;;;16.91;76.91;100119.19;5020274;28;19924;-62
2021/08/21 01:56:16;;;;;;;;;;;;;;;16.89;77.01;100123.59;5020056;28;19923;-62
2021/08/21 01:59:05;;;;;;;;;;;;;;;16.88;76.93;100124.50;5034752;28;20288;-64
2021/08/21 02:01:52;;;;;;;;;;;;;;;16.87;76.81;100122.75;5019342;28;19940;-62
2021/08/21 02:04:39;;;;;;;;;;;;;;;16.86;76.92;100119.25;5020288;28;20395;-62
2021/08/21 02:07:26;;;;;;;;;;;;;;;16.85;76.73;100116.66;5020145;28;19983;-62
2021/08/21 02:10:16;;;;;;;;;;;;;;;16.83;77.01;100119.25;5019527;28;19924;-62
2021/08/21 02:13:00;;;;;;;;;;;;;;;16.83;76.99;100119.25;5034774;28;19924;-62
2021/08/21 02:15:44;;;;;;;;;;;;;;;16.82;76.99;100119.28;5034309;28;19939;-62
2021/08/21 02:18:28;;;;;;;;;;;;;;;16.81;76.96;100122.78;5034328;28;19967;-62
2021/08/21 02:21:16;;;;;;;;;;;;;;;16.81;77.03;100121.06;5034618;28;20022;-62
2021/08/21 02:24:01;;;;;;;;;;;;;;;16.81;76.84;100114.94;5034787;28;19940;-62
2021/08/21 02:26:45;;;;;;;;;;;;;;;16.80;77.04;100115.81;5019288;28;19924;-62
2021/08/21 02:29:30;;;;;;;;;;;;;;;16.79;77.00;100122.81;5034088;28;19979;-62
2021/08/21 02:32:14;;;;;;;;;;;;;;;16.77;76.88;100127.19;5033776;28;19924;-62
2021/08/21 02:35:00;;;;;;;;;;;;;;;16.76;77.00;100125.44;5034034;28;19947;-62
2021/08/21 02:37:50;;;;;;;;;;;;;;;16.77;76.98;100121.94;5019594;28;20291;-64
2021/08/21 02:40:35;;;;;;;;;;;;;;;16.78;77.02;100122.81;5018974;28;19940;-62
2021/08/21 02:43:22;;;;;;;;;;;;;;;16.75;76.98;100113.25;5018997;28;20035;-64
2021/08/21 02:46:09;;;;;;;;;;;;;;;16.75;76.85;100111.47;5033731;28;20391;-64
2021/08/21 02:48:53;;;;;;;;;;;;;;;16.74;76.67;100120.22;5034030;28;19928;-64
2021/08/21 02:51:43;;;;;;;;;;;;;;;16.73;76.72;100118.50;5034137;28;19971;-63
2021/08/21 02:54:30;;;;;;;;;;;;;;;16.73;76.96;100121.13;5018904;28;19971;-63
2021/08/21 02:57:17;;;;;;;;;;;;;;;16.73;76.93;100120.25;5019242;28;20425;-63
2021/08/21 03:00:07;;;;;;;;;;;;;;;16.72;76.83;100116.75;5033980;28;19971;-63
2021/08/21 03:02:54;;;;;;;;;;;;;;;16.71;77.03;100117.66;5018819;28;19940;-64
2021/08/21 03:05:38;;;;;;;;;;;;;;;16.71;76.87;100116.75;5033669;28;19924;-63
2021/08/21 03:08:22;;;;;;;;;;;;;;;16.69;77.02;100108.94;5033674;28;19924;-64
2021/08/21 03:11:09;;;;;;;;;;;;;;;16.69;77.00;100115.91;5019191;28;19924;-63
2021/08/21 03:13:53;;;;;;;;;;;;;;;16.68;76.95;100114.16;5019176;28;19947;-63
2021/08/21 03:16:40;;;;;;;;;;;;;;;16.68;76.88;100119.41;5033735;28;19979;-63
2021/08/21 03:19:24;;;;;;;;;;;;;;;16.67;76.96;100113.31;5033491;28;19971;-62
2021/08/21 03:22:08;;;;;;;;;;;;;;;16.66;76.96;100110.72;5033583;28;19923;-62
2021/08/21 03:24:55;;;;;;;;;;;;;;;16.65;76.84;100107.22;5033200;28;19924;-62
2021/08/21 03:27:44;;;;;;;;;;;;;;;16.64;76.94;100113.31;5033945;28;19924;-63
2021/08/21 03:30:28;;;;;;;;;;;;;;;16.63;76.83;100116.81;5018461;28;19950;-62
2021/08/21 03:33:12;;;;;;;;;;;;;;;16.64;76.90;100112.47;5033218;28;19923;-62
2021/08/21 03:35:59;;;;;;;;;;;;;;;16.62;76.83;100109.84;5018448;28;20013;-62
2021/08/21 03:38:44;;;;;;;;;;;;;;;16.63;76.88;100110.72;5033700;28;20110;-64
2021/08/21 03:41:31;;;;;;;;;;;;;;;16.62;76.89;100109.84;5033661;28;19964;-64
2021/08/21 03:44:18;;;;;;;;;;;;;;;16.62;76.95;100095.91;5018290;28;19924;-64
2021/08/21 03:47:02;;;;;;;;;;;;;;;16.62;76.80;100098.53;5018535;28;20441;-63
2021/08/21 03:49:49;;;;;;;;;;;;;;;16.61;76.92;100097.66;5033327;28;19924;-62
2021/08/21 03:52:36;;;;;;;;;;;;;;;16.61;77.00;100110.72;5033205;28;19971;-62
2021/08/21 03:55:23;;;;;;;;;;;;;;;16.61;76.77;100097.66;5032922;28;19924;-62
2021/08/21 03:58:07;;;;;;;;;;;;;;;16.61;76.74;100100.25;5033022;28;20020;-63
2021/08/21 04:00:54;;;;;;;;;;;;;;;16.61;76.95;100099.41;5033274;28;19939;-64
2021/08/21 04:03:40;;;;;;;;;;;;;;;16.60;76.99;100095.91;5034291;28;19940;-63
2021/08/21 04:06:24;;;;;;;;;;;;;;;16.58;76.73;100092.47;5037297;28;19924;-64
2021/08/21 04:09:08;;;;;;;;;;;;;;;16.57;76.97;100091.56;5022027;28;19966;-64
2021/08/21 04:11:58;;;;;;;;;;;;;;;16.58;76.81;100092.47;5036798;28;19924;-63
2021/08/21 04:14:42;;;;;;;;;;;;;;;16.57;76.82;100095.97;5021754;28;20339;-64
2021/08/21 04:17:31;;;;;;;;;;;;;;;16.57;76.78;100093.34;5036381;28;19924;-64
2021/08/21 04:20:16;;;;;;;;;;;;;;;16.57;76.92;100088.09;5021760;28;19945;-64
2021/08/21 04:22:59;;;;;;;;;;;;;;;16.57;76.73;100088.97;5037073;28;19970;-63
2021/08/21 04:25:43;;;;;;;;;;;;;;;16.56;76.74;100089.00;5036569;28;19928;-64
2021/08/21 04:28:28;;;;;;;;;;;;;;;16.56;76.71;100086.38;5036789;28;19924;-63
2021/08/21 04:31:17;;;;;;;;;;;;;;;16.55;76.86;100098.56;5021411;28;20071;-63
2021/08/21 04:34:01;;;;;;;;;;;;;;;16.55;76.62;100103.81;5021083;28;19924;-63
2021/08/21 04:36:48;;;;;;;;;;;;;;;16.53;76.87;100099.47;5036671;28;19963;-63
2021/08/21 04:39:35;;;;;;;;;;;;;;;16.52;76.88;100098.59;5036307;28;19963;-64
2021/08/21 04:42:19;;;;;;;;;;;;;;;16.52;76.78;100105.56;5036278;28;19924;-64
2021/08/21 04:45:07;;;;;;;;;;;;;;;16.51;76.85;100103.84;5036016;28;20059;-63
2021/08/21 04:47:53;;;;;;;;;;;;;;;16.50;76.87;100105.59;5036035;28;19966;-64
2021/08/21 04:50:40;;;;;;;;;;;;;;;16.50;76.77;100099.47;5035967;28;20391;-63
2021/08/21 04:53:27;;;;;;;;;;;;;;;16.49;76.70;100119.56;5036065;28;19970;-64
2021/08/21 04:56:13;;;;;;;;;;;;;;;16.49;76.90;100116.94;5035592;28;19974;-63
2021/08/21 04:58:58;;;;;;;;;;;;;;;16.48;76.61;100122.16;5020877;28;19967;-63
2021/08/21 05:01:42;;;;;;;;;;;;;;;16.47;76.73;100116.09;5035469;28;19923;-64
2021/08/21 05:04:26;;;;;;;;;;;;;;;16.47;76.86;100109.97;5035590;28;19924;-63
2021/08/21 05:07:13;;;;;;;;;;;;;;;16.46;76.92;100110.84;5035971;28;19920;-63
2021/08/21 05:09:57;;;;;;;;;;;;;;;16.44;76.74;100106.50;5020320;28;19924;-63
2021/08/21 05:12:41;;;;;;;;;;;;;;;16.43;76.68;100107.38;5020721;28;20411;-63
2021/08/21 05:15:25;;;;;;;;;;;;;;;16.44;76.75;100108.25;5034752;28;19924;-63
2021/08/21 05:18:11;;;;;;;;;;;;;;;16.43;76.60;100103.91;5035559;28;19939;-64
2021/08/21 05:21:06;;;;;;;;;;;;;;;16.42;76.76;100105.66;5020967;28;19967;-64
2021/08/21 05:23:50;;;;;;;;;;;;;;;16.42;76.80;100104.78;5035157;28;20071;-63
2021/08/21 05:26:36;;;;;;;;;;;;;;;16.41;76.48;100113.50;5020487;28;20006;-64
2021/08/21 05:29:23;;;;;;;;;;;;;;;16.40;76.63;100112.66;5035241;28;19923;-63
2021/08/21 05:32:12;;;;;;;;;;;;;;;16.39;76.78;100108.28;5035294;28;19966;-63
2021/08/21 05:34:56;;;;;;;;;;;;;;;16.38;76.67;100111.78;5020626;28;20036;-62
2021/08/21 05:37:46;;;;;;;;;;;;;;;16.38;76.62;100106.56;5035004;28;20411;-62
2021/08/21 05:40:33;;;;;;;;;;;;;;;16.38;76.76;100118.75;5020242;28;19963;-62
2021/08/21 05:43:17;;;;;;;;;;;;;;;16.39;76.51;100120.47;5034646;28;20399;-62
2021/08/21 05:46:01;;;;;;;;;;;;;;;16.38;76.55;100122.25;5035334;28;19923;-62
2021/08/21 05:48:48;;;;;;;;;;;;;;;16.38;76.43;100122.25;5020050;28;20018;-62
2021/08/21 05:51:38;;;;;;;;;;;;;;;16.39;76.71;100128.31;5035292;28;20263;-62
2021/08/21 05:54:25;;;;;;;;;;;;;;;16.40;76.62;100125.72;5020079;28;19924;-62
2021/08/21 05:57:09;;;;;;;;;;;;;;;16.41;76.50;100121.34;5019855;28;20348;-63
2021/08/21 05:59:53;;;;;;;;;;;;;;;16.41;76.62;100123.97;5034688;28;19923;-62
2021/08/21 06:02:40;;;;;;;;;;;;;;;16.41;76.72;100123.97;5034557;28;20276;-64
2021/08/21 06:05:24;;;;;;;;;;;;;;;16.42;76.55;100123.09;5020099;28;19975;-62
2021/08/21 06:08:08;;;;;;;;;;;;;;;16.43;76.64;100124.81;5034459;28;19924;-63
2021/08/21 06:10:54;;;;;;;;;;;;;;;16.44;76.76;100116.94;5019516;28;19946;-63
2021/08/21 06:13:39;;;;;;;;;;;;;;;16.46;76.79;100121.31;5034682;28;20482;-63
2021/08/21 06:16:22;;;;;;;;;;;;;;;16.47;76.69;100117.81;5034370;28;19923;-63
2021/08/21 06:19:09;;;;;;;;;;;;;;;16.49;76.74;100114.31;5034296;28;19923;-63
2021/08/21 06:21:59;;;;;;;;;;;;;;;16.50;76.74;100118.69;5019700;28;19928;-63
2021/08/21 06:24:46;;;;;;;;;;;;;;;16.51;76.55;100120.38;5019828;28;19963;-63
2021/08/21 06:27:30;;;;;;;;;;;;;;;16.52;76.61;100121.28;5033981;28;19923;-63
2021/08/21 06:30:14;;;;;;;;;;;;;;;16.54;76.53;100120.38;5034138;28;19999;-63
2021/08/21 06:33:01;;;;;;;;;;;;;;;16.54;76.79;100119.53;5019658;28;19924;-63
2021/08/21 06:35:45;;;;;;;;;;;;;;;16.55;76.83;100113.41;5019094;28;19924;-63
2021/08/21 06:38:29;;;;;;;;;;;;;;;16.56;76.74;100121.22;5034195;28;19924;-63
2021/08/21 06:41:13;;;;;;;;;;;;;;;16.56;76.78;100123.84;5034407;28;20351;-63
2021/08/21 06:43:57;;;;;;;;;;;;;;;16.58;76.75;100127.31;5033702;28;20036;-63
2021/08/21 06:46:41;;;;;;;;;;;;;;;16.60;76.75;100122.06;5019068;28;19923;-64
2021/08/21 06:49:25;;;;;;;;;;;;;;;16.62;76.79;100129.94;5033797;28;19924;-64
2021/08/21 06:52:09;;;;;;;;;;;;;;;16.62;76.60;100125.53;5034006;28;20012;-63
2021/08/21 06:54:53;;;;;;;;;;;;;;;16.63;76.75;100121.19;5033880;28;19996;-63
2021/08/21 06:57:37;;;;;;;;;;;;;;;16.64;76.66;100133.41;5033906;28;20430;-63
2021/08/21 07:00:20;;;;;;;;;;;;;;;16.65;76.55;100127.28;5033905;28;19924;-63
2021/08/21 07:03:07;;;;;;;;;;;;;;;16.66;76.75;100131.66;5033810;28;19927;-64
2021/08/21 07:05:51;;;;;;;;;;;;;;;16.67;76.65;100129.00;5033667;28;19975;-62
2021/08/21 07:08:38;;;;;;;;;;;;;;;16.67;76.69;100126.38;5018758;28;19967;-62
2021/08/21 07:11:28;;;;;;;;;;;;;;;16.68;76.85;100130.75;5034047;28;20273;-62
2021/08/21 07:14:12;;;;;;;;;;;;;;;16.69;76.71;100127.25;5019192;28;20018;-61
2021/08/21 07:16:56;;;;;;;;;;;;;;;16.69;76.76;100115.91;5033755;28;19943;-62
2021/08/21 07:19:42;;;;;;;;;;;;;;;16.70;76.69;100113.28;5033599;28;19924;-62
2021/08/21 07:22:26;;;;;;;;;;;;;;;16.71;76.67;100116.75;5019017;28;20355;-62
2021/08/21 07:25:10;;;;;;;;;;;;;;;16.72;76.49;100114.16;5033727;28;20341;-63
2021/08/21 07:27:54;;;;;;;;;;;;;;;16.73;76.70;100112.38;5033426;28;19924;-62
2021/08/21 07:30:38;;;;;;;;;;;;;;;16.74;76.60;100112.34;5018499;28;19924;-62
2021/08/21 07:33:22;;;;;;;;;;;;;;;16.75;76.53;100113.25;5033832;28;20009;-62
2021/08/21 07:36:09;;;;;;;;;;;;;;;16.76;76.64;100114.97;5018410;28;20402;-63
2021/08/21 07:38:56;;;;;;;;;;;;;;;16.78;76.47;100114.97;5034300;28;20086;-61
2021/08/21 07:41:43;;;;;;;;;;;;;;;16.79;76.57;100114.06;5022411;28;20056;-62
2021/08/21 07:44:27;;;;;;;;;;;;;;;16.80;76.53;100123.66;5022814;28;20441;-61
2021/08/21 07:47:11;;;;;;;;;;;;;;;16.80;76.68;100111.47;5022941;28;19924;-62
2021/08/21 07:49:58;;;;;;;;;;;;;;;16.81;76.52;100113.22;5037040;28;19923;-62
2021/08/21 07:52:45;;;;;;;;;;;;;;;16.83;76.46;100107.94;5037119;28;19970;-62
2021/08/21 07:55:29;;;;;;;;;;;;;;;16.84;76.60;100114.91;5022265;28;20431;-62
2021/08/21 07:58:16;;;;;;;;;;;;;;;16.86;76.43;100108.78;5037393;28;20387;-61
2021/08/21 08:01:03;;;;;;;;;;;;;;;16.87;76.57;100110.50;5022134;28;19967;-64
2021/08/21 08:03:47;;;;;;;;;;;;;;;16.88;76.52;100106.16;4997798;28;19925;-63
2021/08/21 08:06:34;;;;;;;;;;;;;;;16.89;76.48;100103.53;4997554;28;19964;-62
2021/08/21 08:09:18;;;;;;;;;;;;;;;16.90;76.53;100107.00;4997121;28;19925;-63
2021/08/21 08:12:02;;;;;;;;;;;;;;;16.92;76.32;100115.69;4997793;28;20009;-63
2021/08/21 08:14:49;;;;;;;;;;;;;;;16.93;76.47;100112.22;4996674;28;20004;-63
2021/08/21 08:17:33;;;;;;;;;;;;;;;16.95;76.42;100114.88;4997049;28;19928;-63
2021/08/21 08:20:17;;;;;;;;;;;;;;;16.96;76.55;100109.59;4996880;28;19924;-63
2021/08/21 08:23:02;;;;;;;;;;;;;;;16.98;76.37;100112.19;4997319;28;20452;-63
2021/08/21 08:25:52;;;;;;;;;;;;;;;16.99;76.67;100111.31;4996440;28;19924;-63
2021/08/21 08:28:36;;;;;;;;;;;;;;;17.00;76.35;100119.16;4996173;28;19967;-62
2021/08/21 08:31:20;;;;;;;;;;;;;;;17.02;76.23;100119.13;4997339;28;19960;-62
2021/08/21 08:34:03;;;;;;;;;;;;;;;17.03;76.31;100119.16;4997325;28;19968;-62
2021/08/21 08:36:50;;;;;;;;;;;;;;;17.05;76.21;100113.88;4995714;28;20407;-61
2021/08/21 08:39:37;;;;;;;;;;;;;;;17.07;76.31;100109.50;4997020;28;19995;-61
2021/08/21 08:42:24;;;;;;;;;;;;;;;17.09;76.28;100110.34;4995953;28;20401;-62
2021/08/21 08:45:10;;;;;;;;;;;;;;;17.11;76.17;100112.94;4995898;28;19964;-62
2021/08/21 08:47:54;;;;;;;;;;;;;;;17.13;76.20;100119.03;4995686;28;20308;-61
2021/08/21 08:50:41;;;;;;;;;;;;;;;17.14;76.05;100118.16;4996117;28;19994;-61
2021/08/21 08:53:25;;;;;;;;;;;;;;;17.17;75.94;100118.13;4996134;28;19924;-62
2021/08/21 08:56:09;;;;;;;;;;;;;;;17.18;76.16;100120.72;4997067;28;19980;-63
2021/08/21 08:58:59;;;;;;;;;;;;;;;17.20;75.94;100113.72;4996783;28;19925;-63
2021/08/21 09:01:46;;;;;;;;;;;;;;;17.23;76.11;100115.44;5001300;28;19924;-63
2021/08/21 09:04:30;;;;;;;;;;;;;;;17.25;75.90;100107.59;5021037;28;20314;-63
2021/08/21 09:07:17;;;;;;;;;;;;;;;17.27;75.76;100114.53;5021410;28;20391;-63
2021/08/21 09:10:13;;;;;;;;;;;;;;;17.29;75.94;100110.16;5020327;28;20365;-61
2021/08/21 09:13:13;;;;;;;;;;;;;;;17.31;75.91;100113.63;5035917;28;19924;-61
2021/08/21 09:15:59;;;;;;;;;;;;;;;17.33;75.88;100110.97;5020621;28;19944;-61
2021/08/21 09:18:47;;;;;;;;;;;;;;;17.34;75.95;100116.22;5020433;28;19924;-61
2021/08/21 09:21:30;;;;;;;;;;;;;;;17.36;75.83;100118.81;5020972;28;19967;-61
2021/08/21 09:24:24;;;;;;;;;;;;;;;17.38;75.82;100114.41;5035193;28;19967;-61
2021/08/21 09:27:22;;;;;;;;;;;;;;;17.39;75.92;100115.28;5035713;28;19979;-62
2021/08/21 09:30:15;;;;;;;;;;;;;;;17.40;75.74;100112.66;5035182;28;19975;-62
2021/08/21 09:33:06;;;;;;;;;;;;;;;17.42;75.73;100108.28;5020361;28;19960;-61
2021/08/21 09:35:50;;;;;;;;;;;;;;;17.41;75.66;100111.78;5020180;28;19924;-62
2021/08/21 09:38:34;;;;;;;;;;;;;;;17.43;75.54;100109.13;5035084;28;19971;-62
2021/08/21 09:41:23;;;;;;;;;;;;;;;17.44;75.66;100116.94;5035098;28;19924;-61
2021/08/21 09:44:08;;;;;;;;;;;;;;;17.46;75.52;100116.97;5034935;28;19924;-61
2021/08/21 09:47:11;;;;;;;;;;;;;;;17.47;75.55;100122.16;5035251;28;19923;-61
2021/08/21 09:50:14;;;;;;;;;;;;;;;17.48;75.57;100115.19;5034561;28;19924;-61
2021/08/21 09:53:03;;;;;;;;;;;;;;;17.50;75.32;100118.66;5020143;28;19923;-62
2021/08/21 09:55:50;;;;;;;;;;;;;;;17.52;75.53;100111.63;5019754;28;20394;-61
2021/08/21 09:58:37;;;;;;;;;;;;;;;17.53;75.46;100104.66;5019754;28;19971;-62
2021/08/21 10:01:21;;;;;;;;;;;;;;;17.55;75.49;100097.66;5019788;28;19924;-61
2021/08/21 10:04:08;;;;;;;;;;;;;;;17.56;75.47;100104.63;5034429;28;19999;-63
2021/08/21 10:06:52;;;;;;;;;;;;;;;17.56;75.38;100097.63;5019614;28;20284;-63
2021/08/21 10:09:46;;;;;;;;;;;;;;;17.57;75.38;100104.59;5034516;28;19924;-62
2021/08/21 10:12:31;;;;;;;;;;;;;;;17.58;75.42;100101.09;5034504;28;19924;-63
2021/08/21 10:15:19;;;;;;;;;;;;;;;17.60;75.50;100098.44;5034860;28;19924;-63
2021/08/21 10:18:03;;;;;;;;;;;;;;;17.61;75.48;100092.31;5019683;28;19966;-63
2021/08/21 10:20:47;;;;;;;;;;;;;;;17.63;75.34;100090.53;5034776;28;20391;-61
2021/08/21 10:23:40;;;;;;;;;;;;;;;17.64;75.52;100082.69;5034464;28;19923;-61
2021/08/21 10:26:27;;;;;;;;;;;;;;;17.65;75.23;100089.66;5018938;28;19928;-61
2021/08/21 10:29:11;;;;;;;;;;;;;;;17.67;75.22;100081.75;5034562;28;19963;-61
2021/08/21 10:31:58;;;;;;;;;;;;;;;17.70;75.18;100088.72;5033783;28;19971;-62
2021/08/21 10:34:54;;;;;;;;;;;;;;;17.70;75.09;100081.72;5019635;28;20391;-61
2021/08/21 10:37:43;;;;;;;;;;;;;;;17.74;75.15;100077.31;5019632;28;19924;-63
2021/08/21 10:40:27;;;;;;;;;;;;;;;17.75;75.06;100076.44;5019485;28;19963;-63
2021/08/21 10:43:12;;;;;;;;;;;;;;;17.76;75.04;100086.03;5034081;28;19924;-63
2021/08/21 10:45:58;;;;;;;;;;;;;;;17.77;75.13;100069.41;5033622;28;19928;-63
2021/08/21 10:48:45;;;;;;;;;;;;;;;17.79;75.10;100067.63;5033775;28;19924;-63
2021/08/21 10:51:36;;;;;;;;;;;;;;;17.82;74.89;100065.00;5033748;28;19924;-63
2021/08/21 10:54:40;;;;;;;;;;;;;;;17.83;74.96;100057.97;5019420;28;20012;-63
2021/08/21 10:57:32;;;;;;;;;;;;;;;17.85;74.92;100064.06;5019023;28;20284;-63
2021/08/21 11:00:39;;;;;;;;;;;;;;;17.86;75.14;100058.78;5018873;28;19975;-63
2021/08/21 11:03:23;;;;;;;;;;;;;;;17.89;74.92;100060.53;5033443;28;19924;-63
2021/08/21 11:06:08;;;;;;;;;;;;;;;17.90;74.83;100062.25;5034053;28;19924;-63
2021/08/21 11:08:53;;;;;;;;;;;;;;;17.91;74.96;100059.59;5033787;28;19924;-62
2021/08/21 11:11:43;;;;;;;;;;;;;;;17.94;74.93;100053.44;5034116;28;19971;-63
2021/08/21 11:14:35;;;;;;;;;;;;;;;17.94;74.70;100048.19;5036690;28;19924;-61
2021/08/21 11:17:31;;;;;;;;;;;;;;;17.97;74.85;100045.53;5023246;28;19924;-64
2021/08/21 11:20:36;;;;;;;;;;;;;;;17.98;74.68;100043.84;5023102;28;20304;-63
2021/08/21 11:23:20;;;;;;;;;;;;;;;17.99;74.81;100049.03;5022727;28;20300;-63
2021/08/21 11:26:20;;;;;;;;;;;;;;;17.99;74.81;100040.28;5022988;28;19927;-62
2021/08/21 11:29:06;;;;;;;;;;;;;;;17.99;74.75;100051.66;5022576;28;20022;-63
2021/08/21 11:31:59;;;;;;;;;;;;;;;18.01;74.73;100052.50;5022752;28;19924;-63
2021/08/21 11:34:43;;;;;;;;;;;;;;;18.04;74.61;100048.97;5022924;28;19924;-63
2021/08/21 11:37:29;;;;;;;;;;;;;;;18.04;74.44;100046.34;5037271;28;19924;-63
2021/08/21 11:40:15;;;;;;;;;;;;;;;18.05;74.69;100051.59;5037738;28;20292;-63
2021/08/21 11:43:03;;;;;;;;;;;;;;;18.06;74.61;100039.31;5022313;28;20335;-62
2021/08/21 11:45:47;;;;;;;;;;;;;;;18.07;74.53;100044.53;5022760;28;19963;-61
2021/08/21 11:48:35;;;;;;;;;;;;;;;18.08;74.58;100045.41;5037326;28;19923;-61
2021/08/21 11:51:25;;;;;;;;;;;;;;;18.08;74.51;100048.03;5022629;28;19924;-61
2021/08/21 11:54:09;;;;;;;;;;;;;;;18.09;74.33;100048.00;5037434;28;19971;-62
2021/08/21 11:56:57;;;;;;;;;;;;;;;18.10;74.50;100043.63;5037134;28;19924;-63
2021/08/21 11:59:44;;;;;;;;;;;;;;;18.11;74.33;100043.59;5036707;28;19959;-63
2021/08/21 12:02:41;;;;;;;;;;;;;;;18.11;74.33;100048.84;5036923;28;19924;-63
2021/08/21 12:05:30;;;;;;;;;;;;;;;18.15;74.25;100040.94;5022436;28;19924;-62
2021/08/21 12:08:21;;;;;;;;;;;;;;;18.15;74.39;100033.94;5022263;28;19986;-63
2021/08/21 12:11:05;;;;;;;;;;;;;;;18.17;74.39;100028.69;5021752;28;19924;-63
2021/08/21 12:13:55;;;;;;;;;;;;;;;18.16;74.36;100022.53;5022244;28;19924;-63
2021/08/21 12:16:43;;;;;;;;;;;;;;;18.19;74.36;100027.75;5021324;28;19970;-63
2021/08/21 12:19:29;;;;;;;;;;;;;;;18.19;74.38;100033.00;5022163;28;20427;-63
2021/08/21 12:22:15;;;;;;;;;;;;;;;18.21;74.15;100031.22;5037109;28;20288;-63
2021/08/21 12:24:59;;;;;;;;;;;;;;;18.22;74.31;100011.97;5021307;28;20422;-63
2021/08/21 12:27:43;;;;;;;;;;;;;;;18.26;74.13;100021.53;5036797;28;20010;-63
2021/08/21 12:30:27;;;;;;;;;;;;;;;18.29;74.15;100014.50;5021667;28;19923;-63
2021/08/21 12:33:11;;;;;;;;;;;;;;;18.30;74.43;100014.47;5036875;28;19924;-63
2021/08/21 12:35:55;;;;;;;;;;;;;;;18.32;74.19;100017.06;5036471;28;20300;-62
2021/08/21 12:38:40;;;;;;;;;;;;;;;18.33;74.03;100016.16;5021803;28;20047;-63
2021/08/21 12:41:23;;;;;;;;;;;;;;;18.34;74.13;100025.78;5036450;28;19971;-63
2021/08/21 12:44:14;;;;;;;;;;;;;;;18.34;74.02;100012.66;5021265;28;20272;-63
2021/08/21 12:47:00;;;;;;;;;;;;;;;18.35;73.98;100011.75;5021467;28;19924;-61
2021/08/21 12:49:48;;;;;;;;;;;;;;;18.35;73.87;100014.38;5021170;28;20296;-61
2021/08/21 12:52:32;;;;;;;;;;;;;;;18.36;74.08;100009.13;5021626;28;19924;-62
2021/08/21 12:55:17;;;;;;;;;;;;;;;18.37;74.02;100015.22;5020617;28;19967;-61
2021/08/21 12:58:08;;;;;;;;;;;;;;;18.39;73.83;100016.06;5035957;28;20007;-61
2021/08/21 13:01:03;;;;;;;;;;;;;;;18.40;73.86;100012.56;5021360;28;19943;-62
2021/08/21 13:04:02;;;;;;;;;;;;;;;18.42;73.72;100018.66;5035957;28;19924;-62
2021/08/21 13:06:58;;;;;;;;;;;;;;;18.44;73.86;100013.38;5035946;28;19923;-61
2021/08/21 13:09:44;;;;;;;;;;;;;;;18.44;73.85;100011.63;5020778;28;19924;-61
2021/08/21 13:12:28;;;;;;;;;;;;;;;18.45;73.92;100007.22;5035592;28;19924;-61
2021/08/21 13:15:13;;;;;;;;;;;;;;;18.45;73.72;100009.84;5035779;28;19962;-63
2021/08/21 13:18:05;;;;;;;;;;;;;;;18.46;73.58;100003.72;5020373;28;20441;-63
2021/08/21 13:20:49;;;;;;;;;;;;;;;18.45;73.73;99994.97;5021048;28;19967;-63
2021/08/21 13:23:33;;;;;;;;;;;;;;;18.46;73.70;99995.84;5020369;28;19924;-63
2021/08/21 13:26:20;;;;;;;;;;;;;;;18.46;73.78;99995.84;5035529;28;20024;-61
2021/08/21 13:29:07;;;;;;;;;;;;;;;18.48;73.73;99984.41;5035396;28;20071;-61
2021/08/21 13:31:54;;;;;;;;;;;;;;;18.49;73.62;99978.28;5019535;28;19924;-62
2021/08/21 13:34:38;;;;;;;;;;;;;;;18.50;73.62;99984.41;5035376;28;19966;-63
2021/08/21 13:37:23;;;;;;;;;;;;;;;18.50;73.45;99973.91;5034636;28;20306;-63
2021/08/21 13:40:07;;;;;;;;;;;;;;;18.50;73.40;99973.91;5034823;28;19970;-63
2021/08/21 13:42:51;;;;;;;;;;;;;;;18.50;73.33;99969.53;5035272;28;19967;-63
2021/08/21 13:45:35;;;;;;;;;;;;;;;18.50;73.46;99969.53;5020625;28;20284;-61
2021/08/21 13:48:19;;;;;;;;;;;;;;;18.51;73.29;99967.78;5035193;28;19970;-62
2021/08/21 13:51:03;;;;;;;;;;;;;;;18.52;73.44;99967.75;5034688;28;20018;-61
2021/08/21 13:53:53;;;;;;;;;;;;;;;18.53;73.22;99969.47;5020232;28;19966;-62
2021/08/21 13:56:38;;;;;;;;;;;;;;;18.55;73.33;99970.31;5034954;28;20462;-62
2021/08/21 13:59:22;;;;;;;;;;;;;;;18.57;73.39;99975.53;5035153;28;20330;-63
2021/08/21 14:02:05;;;;;;;;;;;;;;;18.59;73.38;99965.03;5019974;28;20312;-63
2021/08/21 14:04:58;;;;;;;;;;;;;;;18.60;73.36;99964.13;5019895;28;19924;-63
2021/08/21 14:07:42;;;;;;;;;;;;;;;18.61;73.17;99968.47;5034921;28;19920;-63
2021/08/21 14:10:29;;;;;;;;;;;;;;;18.62;73.01;99962.31;5034724;28;19924;-63
2021/08/21 14:13:19;;;;;;;;;;;;;;;18.64;73.11;99960.53;5034536;28;19924;-63
2021/08/21 14:16:03;;;;;;;;;;;;;;;18.66;73.10;99953.50;5019897;28;19959;-63
2021/08/21 14:18:47;;;;;;;;;;;;;;;18.68;73.09;99956.97;5034442;28;19924;-63